createdAt,value
2022-08-04T00:01:34.423Z,19.60
2022-08-04T00:04:03.384Z,17.65
2022-08-04T00:06:42.534Z,17.42
2022-08-04T00:09:30.999Z,17.38
2022-08-04T00:11:58.743Z,18.38
2022-08-04T00:14:25.841Z,17.33
2022-08-04T00:16:54.525Z,18.67
2022-08-04T00:19:32.165Z,17.48
2022-08-04T00:22:04.387Z,16.48
2022-08-04T00:24:31.668Z,17.60
2022-08-04T00:26:59.010Z,17.35
2022-08-04T00:29:26.177Z,17.10
2022-08-04T00:31:56.842Z,17.70
2022-08-04T00:34:25.252Z,16.98
2022-08-04T00:36:52.522Z,16.80
2022-08-04T00:39:19.964Z,16.27
2022-08-04T00:41:57.240Z,16.50
2022-08-04T00:44:27.737Z,16.85
2022-08-04T00:47:00.229Z,16.92
2022-08-04T00:49:33.381Z,16.92
2022-08-04T00:52:30.847Z,16.45
2022-08-04T00:55:09.290Z,15.25
2022-08-04T00:57:48.551Z,16.08
2022-08-04T01:00:16.051Z,16.50
2022-08-04T01:02:51.994Z,15.68
2022-08-04T01:05:38.312Z,17.38
2022-08-04T01:08:05.609Z,16.13
2022-08-04T01:10:32.706Z,16.08
2022-08-04T01:13:15.659Z,15.88
2022-08-04T01:15:59.519Z,16.25
2022-08-04T01:18:41.598Z,15.90
2022-08-04T01:21:27.610Z,15.65
2022-08-04T01:24:15.038Z,15.15
2022-08-04T01:27:00.908Z,15.27
2022-08-04T01:29:43.715Z,17.77
2022-08-04T01:32:25.848Z,15.93
2022-08-04T01:34:55.311Z,14.88
2022-08-04T01:37:45.444Z,16.83
2022-08-04T01:40:14.035Z,15.60
2022-08-04T01:42:42.059Z,15.50
2022-08-04T01:45:10.137Z,15.25
2022-08-04T01:47:38.482Z,14.00
2022-08-04T01:50:13.031Z,14.90
2022-08-04T01:52:41.102Z,14.20
2022-08-04T01:55:12.193Z,15.05
2022-08-04T01:57:49.394Z,14.98
2022-08-04T02:00:28.786Z,15.43
2022-08-04T02:02:56.449Z,16.15
2022-08-04T02:05:24.442Z,15.98
2022-08-04T02:08:13.485Z,14.23
2022-08-04T02:10:46.169Z,13.90
2022-08-04T02:13:22.712Z,13.88
2022-08-04T02:15:57.652Z,14.35
2022-08-04T02:18:25.731Z,14.38
2022-08-04T02:20:56.831Z,15.55
2022-08-04T02:23:27.232Z,15.52
2022-08-04T02:25:57.965Z,16.30
2022-08-04T02:28:31.114Z,17.95
2022-08-04T02:31:07.123Z,18.05
2022-08-04T02:33:41.518Z,41.47
2022-08-04T02:36:10.301Z,36.00
2022-08-04T02:38:42.122Z,36.40
2022-08-04T02:41:10.773Z,31.00
2022-08-04T02:43:52.131Z,23.77
2022-08-04T02:46:20.279Z,21.70
2022-08-04T02:48:47.787Z,21.45
2022-08-04T02:51:15.962Z,22.65
2022-08-04T02:53:43.183Z,22.75
2022-08-04T02:56:10.418Z,26.35
2022-08-04T02:58:37.747Z,24.35
2022-08-04T03:01:05.216Z,22.52
2022-08-04T03:03:42.133Z,24.58
2022-08-04T03:06:12.372Z,26.00
2022-08-04T03:08:42.313Z,26.58
2022-08-04T03:11:21.430Z,28.27
2022-08-04T03:13:48.535Z,27.63
2022-08-04T03:16:21.773Z,31.48
2022-08-04T03:19:03.817Z,30.30
2022-08-04T03:21:49.498Z,32.85
2022-08-04T03:24:22.852Z,34.53
2022-08-04T03:26:55.851Z,36.53
2022-08-04T03:29:26.038Z,35.22
2022-08-04T03:32:22.947Z,33.10
2022-08-04T03:34:59.238Z,33.33
2022-08-04T03:37:26.408Z,29.02
2022-08-04T03:39:56.704Z,30.20
2022-08-04T03:42:26.609Z,26.48
2022-08-04T03:45:23.139Z,27.42
2022-08-04T03:47:57.006Z,25.58
2022-08-04T03:50:26.993Z,26.92
2022-08-04T03:53:12.763Z,26.33
2022-08-04T03:55:58.535Z,24.58
2022-08-04T03:58:44.619Z,19.58
2022-08-04T04:01:17.901Z,17.02
2022-08-04T04:04:01.486Z,18.55
2022-08-04T04:06:35.551Z,16.95
2022-08-04T04:09:16.371Z,16.70
2022-08-04T04:12:14.331Z,17.08
2022-08-04T04:14:44.539Z,16.58
2022-08-04T04:17:17.586Z,17.70
2022-08-04T04:20:03.431Z,18.50
2022-08-04T04:22:45.520Z,18.42
2022-08-04T04:25:22.043Z,16.73
2022-08-04T04:27:52.001Z,15.93
2022-08-04T04:30:24.943Z,16.23
2022-08-04T04:33:08.797Z,16.10
2022-08-04T04:35:43.045Z,16.70
2022-08-04T04:38:22.537Z,16.08
2022-08-04T04:40:49.862Z,15.40
2022-08-04T04:43:21.445Z,15.20
2022-08-04T04:46:11.603Z,15.10
2022-08-04T04:48:42.958Z,15.88
2022-08-04T04:51:33.415Z,16.13
2022-08-04T04:54:19.301Z,24.83
2022-08-04T04:56:48.262Z,17.75
2022-08-04T04:59:16.331Z,16.10
2022-08-04T05:01:43.529Z,16.25
2022-08-04T05:04:33.844Z,15.88
2022-08-04T05:07:15.632Z,15.70
2022-08-04T05:09:52.233Z,16.08
2022-08-04T05:14:35.435Z,17.67
2022-08-04T05:15:43.420Z,19.45
2022-08-04T05:18:11.074Z,19.55
2022-08-04T05:20:48.560Z,20.02
2022-08-04T05:23:28.801Z,19.15
2022-08-04T05:25:59.098Z,18.17
2022-08-04T05:28:31.951Z,18.95
2022-08-04T05:31:02.764Z,17.23
2022-08-04T05:33:33.130Z,18.83
2022-08-04T05:36:21.577Z,16.50
2022-08-04T05:38:50.532Z,15.05
2022-08-04T05:41:17.762Z,16.20
2022-08-04T05:43:45.029Z,15.32
2022-08-04T05:46:12.363Z,15.20
2022-08-04T05:48:39.515Z,15.38
2022-08-04T05:51:06.665Z,14.93
2022-08-04T05:53:33.831Z,13.60
2022-08-04T05:56:00.950Z,12.85
2022-08-04T05:58:31.243Z,11.05
2022-08-04T06:01:01.624Z,10.80
2022-08-04T06:03:30.045Z,10.02
2022-08-04T06:05:57.681Z,10.18
2022-08-04T06:08:25.035Z,10.30
2022-08-04T06:10:52.613Z,9.90
2022-08-04T06:13:49.119Z,9.18
2022-08-04T06:16:07.596Z,10.30
2022-08-04T06:19:58.654Z,10.48
2022-08-04T06:21:23.306Z,10.07
2022-08-04T06:23:57.863Z,10.63
2022-08-04T06:26:29.708Z,11.43
2022-08-04T06:28:56.842Z,10.38
2022-08-04T06:32:29.603Z,10.40
2022-08-04T06:34:30.831Z,10.52
2022-08-04T06:36:57.997Z,10.57
2022-08-04T06:39:25.353Z,10.05
2022-08-04T06:41:55.483Z,9.38
2022-08-04T06:44:40.575Z,8.40
2022-08-04T06:47:07.933Z,8.38
2022-08-04T06:49:44.237Z,8.57
2022-08-04T06:52:22.287Z,8.48
2022-08-04T06:54:49.760Z,7.97
2022-08-04T06:57:20.950Z,7.57
2022-08-04T07:00:08.951Z,7.45
2022-08-04T07:02:39.525Z,6.95
2022-08-04T07:05:07.974Z,6.63
2022-08-04T07:07:36.922Z,6.18
2022-08-04T07:10:04.623Z,6.55
2022-08-04T07:12:31.796Z,6.80
2022-08-04T07:14:59.025Z,7.03
2022-08-04T07:17:28.855Z,6.45
2022-08-04T07:20:01.902Z,6.65
2022-08-04T07:22:29.188Z,6.43
2022-08-04T07:24:56.832Z,6.00
2022-08-04T07:27:48.720Z,6.82
2022-08-04T07:30:11.711Z,6.30
2022-08-04T07:32:39.088Z,6.28
2022-08-04T07:35:06.783Z,6.75
2022-08-04T07:37:39.140Z,6.60
2022-08-04T07:40:07.650Z,6.15
2022-08-04T07:42:34.784Z,6.10
2022-08-04T07:45:01.978Z,6.38
2022-08-04T07:47:31.723Z,5.90
2022-08-04T07:49:58.857Z,5.93
2022-08-04T07:52:26.598Z,6.05
2022-08-04T07:54:53.750Z,7.35
2022-08-04T07:57:40.733Z,7.90
2022-08-04T08:00:08.446Z,7.00
2022-08-04T08:02:35.828Z,7.28
2022-08-04T08:05:03.022Z,7.35
2022-08-04T08:07:30.192Z,6.78
2022-08-04T08:09:57.305Z,7.07
2022-08-04T08:12:37.644Z,6.65
2022-08-04T08:15:13.351Z,6.32
2022-08-04T08:17:58.611Z,6.15
2022-08-04T08:20:29.785Z,5.57
2022-08-04T08:22:57.326Z,5.53
2022-08-04T08:25:24.456Z,5.65
2022-08-04T08:27:56.465Z,5.20
2022-08-04T08:30:24.117Z,6.07
2022-08-04T08:32:51.491Z,5.35
2022-08-04T08:35:18.817Z,5.53
2022-08-04T08:37:51.325Z,5.15
2022-08-04T08:40:40.833Z,5.00
2022-08-04T08:44:04.463Z,5.53
2022-08-04T08:46:49.033Z,5.40
2022-08-04T08:50:01.107Z,5.97
2022-08-04T08:53:00.859Z,4.30
2022-08-04T08:55:22.661Z,4.38
2022-08-04T08:57:59.887Z,4.60
2022-08-04T09:00:31.912Z,4.35
2022-08-04T09:03:04.178Z,3.90
2022-08-04T09:05:32.413Z,3.80
2022-08-04T09:08:11.527Z,4.00
2022-08-04T09:10:38.675Z,3.78
2022-08-04T09:13:11.813Z,4.80
2022-08-04T09:15:38.931Z,3.70
2022-08-04T09:18:41.556Z,7.13
2022-08-04T09:21:14.688Z,4.90
2022-08-04T09:23:50.225Z,3.90
2022-08-04T09:26:38.839Z,3.85
2022-08-04T09:29:05.989Z,3.90
2022-08-04T09:31:48.985Z,4.10
2022-08-04T09:34:22.082Z,3.53
2022-08-04T09:36:58.534Z,4.03
2022-08-04T09:39:25.729Z,3.30
2022-08-04T09:42:14.582Z,3.20
2022-08-04T09:45:06.218Z,3.30
2022-08-04T09:47:39.403Z,4.15
2022-08-04T09:50:26.101Z,3.70
2022-08-04T09:52:53.211Z,4.10
2022-08-04T09:55:23.536Z,4.15
2022-08-04T09:57:50.678Z,3.35
2022-08-04T10:00:17.816Z,3.83
2022-08-04T10:02:45.713Z,3.55
2022-08-04T10:05:13.949Z,3.80
2022-08-04T10:07:44.471Z,3.53
2022-08-04T10:10:41.269Z,3.92
2022-08-04T10:13:20.778Z,3.60
2022-08-04T10:16:00.594Z,3.42
2022-08-04T10:18:46.518Z,4.05
2022-08-04T10:21:32.002Z,3.50
2022-08-04T10:24:34.436Z,3.80
2022-08-04T10:27:12.083Z,3.83
2022-08-04T10:29:42.557Z,3.70
2022-08-04T10:32:12.806Z,3.63
2022-08-04T10:34:42.592Z,3.50
2022-08-04T10:37:20.810Z,3.92
2022-08-04T10:40:12.054Z,4.25
2022-08-04T10:42:43.013Z,3.95
2022-08-04T10:45:20.190Z,3.95
2022-08-04T10:48:05.978Z,3.80
2022-08-04T10:50:39.089Z,3.72
2022-08-04T10:53:20.124Z,3.60
2022-08-04T10:56:05.735Z,3.88
2022-08-04T10:58:48.043Z,3.70
2022-08-04T11:02:01.649Z,3.70
2022-08-04T11:04:42.331Z,3.95
2022-08-04T11:07:09.462Z,3.63
2022-08-04T11:09:36.601Z,3.72
2022-08-04T11:12:04.923Z,4.00
2022-08-04T11:14:38.843Z,3.78
2022-08-04T11:17:07.562Z,3.67
2022-08-04T11:19:44.775Z,3.70
2022-08-04T11:22:16.770Z,3.88
2022-08-04T11:24:51.158Z,3.58
2022-08-04T11:27:29.437Z,3.80
2022-08-04T11:30:06.546Z,4.13
2022-08-04T11:32:38.837Z,3.75
2022-08-04T11:35:06.321Z,3.83
2022-08-04T11:37:37.718Z,3.83
2022-08-04T11:40:07.792Z,3.58
2022-08-04T11:42:39.308Z,3.58
2022-08-04T11:45:19.091Z,3.70
2022-08-04T11:47:51.198Z,3.75
2022-08-04T11:50:24.442Z,3.40
2022-08-04T11:52:53.390Z,3.60
2022-08-04T11:55:22.268Z,3.85
2022-08-04T11:57:54.038Z,3.50
2022-08-04T12:00:21.559Z,3.50
2022-08-04T12:02:57.918Z,3.30
2022-08-04T12:05:36.518Z,3.83
2022-08-04T12:08:25.076Z,3.45
2022-08-04T12:10:55.094Z,3.50
2022-08-04T12:13:25.929Z,3.65
2022-08-04T12:16:02.513Z,3.67
2022-08-04T12:18:42.356Z,3.22
2022-08-04T12:21:15.142Z,3.80
2022-08-04T12:23:42.651Z,5.32
2022-08-04T12:26:21.749Z,3.63
2022-08-04T12:31:39.470Z,3.45
2022-08-04T12:34:10.166Z,3.58
2022-08-04T12:36:37.341Z,3.80
2022-08-04T12:39:10.514Z,3.55
2022-08-04T12:41:40.134Z,3.47
2022-08-04T12:44:07.945Z,3.60
2022-08-04T12:46:55.085Z,3.55
2022-08-04T12:49:43.039Z,3.60
2022-08-04T12:52:45.082Z,3.38
2022-08-04T12:55:14.339Z,3.50
2022-08-04T12:57:41.793Z,3.20
2022-08-04T13:00:09.748Z,3.50
2022-08-04T13:02:42.445Z,3.03
2022-08-04T13:05:10.296Z,6.82
2022-08-04T13:07:46.914Z,3.50
2022-08-04T13:10:18.184Z,3.60
2022-08-04T13:12:51.606Z,3.45
2022-08-04T13:15:19.152Z,4.10
2022-08-04T13:18:03.850Z,5.28
2022-08-04T13:20:35.774Z,4.15
2022-08-04T13:23:08.840Z,4.50
2022-08-04T13:26:44.616Z,3.15
2022-08-04T13:28:27.823Z,3.10
2022-08-04T13:30:59.770Z,2.90
2022-08-04T13:33:53.280Z,2.63
2022-08-04T13:36:20.654Z,2.70
2022-08-04T13:38:52.535Z,3.10
2022-08-04T13:41:19.859Z,3.10
2022-08-04T13:44:18.443Z,3.60
2022-08-04T13:46:36.267Z,3.33
2022-08-04T13:51:59.234Z,2.78
2022-08-04T13:54:30.613Z,2.65
2022-08-04T13:57:00.034Z,11.43
2022-08-04T13:59:27.670Z,2.90
2022-08-04T14:02:02.215Z,3.15
2022-08-04T14:04:31.363Z,3.00
2022-08-04T14:07:18.022Z,3.03
2022-08-04T14:10:03.021Z,3.20
2022-08-04T14:12:38.499Z,3.00
2022-08-04T14:16:01.305Z,3.03
2022-08-04T14:18:19.319Z,2.83
2022-08-04T14:20:58.806Z,3.05
2022-08-04T14:23:31.814Z,3.00
2022-08-04T14:26:00.578Z,2.80
2022-08-04T14:29:25.182Z,2.60
2022-08-04T14:31:21.753Z,2.70
2022-08-04T14:34:02.341Z,3.13
2022-08-04T14:37:16.405Z,3.90
2022-08-04T14:39:39.108Z,2.90
2022-08-04T14:42:06.578Z,3.28
2022-08-04T14:44:33.863Z,2.83
2022-08-04T14:47:02.222Z,2.75
2022-08-04T14:49:29.350Z,3.15
2022-08-04T14:51:57.382Z,3.00
2022-08-04T14:54:31.503Z,3.22
2022-08-04T14:56:59.607Z,2.95
2022-08-04T14:59:26.991Z,2.95
2022-08-04T15:02:01.143Z,2.80
2022-08-04T15:04:28.713Z,3.08
2022-08-04T15:06:55.871Z,2.75
2022-08-04T15:09:23.049Z,2.80
2022-08-04T15:11:50.315Z,2.70
2022-08-04T15:14:36.499Z,3.00
2022-08-04T15:17:07.337Z,2.92
2022-08-04T15:19:38.845Z,3.08
2022-08-04T15:22:06.003Z,3.08
2022-08-04T15:24:33.169Z,3.17
2022-08-04T15:27:04.212Z,3.00
2022-08-04T15:29:59.525Z,3.40
2022-08-04T15:32:20.831Z,3.10
2022-08-04T15:34:48.600Z,2.95
2022-08-04T15:37:19.508Z,3.00
2022-08-04T15:39:52.232Z,3.10
2022-08-04T15:42:23.299Z,3.20
2022-08-04T15:45:04.784Z,3.13
2022-08-04T15:47:31.955Z,3.25
2022-08-04T15:50:06.707Z,3.58
2022-08-04T15:53:00.683Z,3.20
2022-08-04T15:55:41.711Z,2.78
2022-08-04T15:58:10.683Z,3.00
2022-08-04T16:00:50.537Z,3.13
2022-08-04T16:03:58.501Z,3.08
2022-08-04T16:06:22.942Z,3.05
2022-08-04T16:08:57.653Z,3.78
2022-08-04T16:11:33.326Z,3.20
2022-08-04T16:14:09.981Z,3.65
2022-08-04T16:16:41.008Z,3.55
2022-08-04T16:19:16.620Z,3.15
2022-08-04T16:21:50.329Z,3.30
2022-08-04T16:24:21.849Z,3.85
2022-08-04T16:26:54.626Z,3.05
2022-08-04T16:29:23.760Z,3.40
2022-08-04T16:32:06.900Z,3.70
2022-08-04T16:34:49.579Z,3.97
2022-08-04T16:37:21.239Z,3.90
2022-08-04T16:39:50.280Z,3.70
2022-08-04T16:42:30.910Z,3.72
2022-08-04T16:45:13.137Z,3.67
2022-08-04T16:47:49.494Z,3.50
2022-08-04T16:50:24.620Z,3.60
2022-08-04T16:52:52.441Z,3.95
2022-08-04T16:55:23.312Z,3.80
2022-08-04T16:57:50.778Z,3.85
2022-08-04T17:00:18.150Z,4.72
2022-08-04T17:02:46.087Z,3.38
2022-08-04T17:05:39.534Z,3.95
2022-08-04T17:08:29.203Z,3.58
2022-08-04T17:10:55.575Z,3.50
2022-08-04T17:14:03.840Z,3.90
2022-08-04T17:16:18.151Z,4.05
2022-08-04T17:18:52.533Z,3.90
2022-08-04T17:21:23.742Z,3.40
2022-08-04T17:24:15.933Z,3.47
2022-08-04T17:26:40.351Z,3.25
2022-08-04T17:29:09.168Z,3.53
2022-08-04T17:31:37.685Z,3.72
2022-08-04T17:34:15.646Z,3.63
2022-08-04T17:36:44.070Z,3.50
2022-08-04T17:39:16.788Z,3.50
2022-08-04T17:41:48.757Z,3.50
2022-08-04T17:44:16.594Z,3.88
2022-08-04T17:46:49.107Z,3.83
2022-08-04T17:49:17.015Z,16.77
2022-08-04T17:52:05.843Z,7.75
2022-08-04T17:54:36.530Z,12.13
2022-08-04T17:57:19.885Z,14.38
2022-08-04T17:59:57.990Z,13.75
2022-08-04T18:02:32.534Z,27.83
2022-08-04T18:05:07.724Z,12.48
2022-08-04T18:08:35.220Z,13.60
2022-08-04T18:10:56.705Z,8.57
2022-08-04T18:13:25.195Z,10.60
2022-08-04T18:16:02.350Z,9.50
2022-08-04T18:18:30.078Z,7.32
2022-08-04T18:20:59.682Z,7.05
2022-08-04T18:23:31.786Z,12.73
2022-08-04T18:26:02.174Z,11.13
2022-08-04T18:28:33.488Z,10.27
2022-08-04T18:31:00.975Z,10.13
2022-08-04T18:33:40.808Z,9.93
2022-08-04T18:36:32.751Z,9.43
2022-08-04T18:39:13.637Z,8.77
2022-08-04T18:42:02.350Z,9.35
2022-08-04T18:44:51.791Z,8.27
2022-08-04T18:47:22.254Z,9.05
2022-08-04T18:50:58.601Z,9.38
2022-08-04T18:52:45.721Z,9.10
2022-08-04T18:55:13.342Z,9.40
2022-08-04T18:58:01.490Z,13.07
2022-08-04T19:00:33.306Z,12.30
2022-08-04T19:03:01.760Z,12.32
2022-08-04T19:05:41.317Z,12.25
2022-08-04T19:08:11.345Z,11.43
2022-08-04T19:10:59.553Z,11.20
2022-08-04T19:13:27.731Z,9.95
2022-08-04T19:15:54.913Z,10.45
2022-08-04T19:18:25.942Z,10.70
2022-08-04T19:20:55.393Z,10.50
2022-08-04T19:24:28.101Z,11.88
2022-08-04T19:26:17.966Z,10.80
2022-08-04T19:28:55.176Z,11.50
2022-08-04T19:31:28.395Z,12.65
2022-08-04T19:34:04.842Z,13.63
2022-08-04T19:36:34.435Z,11.88
2022-08-04T19:39:02.292Z,10.32
2022-08-04T19:41:31.255Z,9.20
2022-08-04T19:43:58.508Z,9.13
2022-08-04T19:46:27.950Z,9.05
2022-08-04T19:49:00.450Z,9.75
2022-08-04T19:51:32.667Z,9.63
2022-08-04T19:54:02.973Z,9.52
2022-08-04T19:56:40.931Z,9.20
2022-08-04T19:59:09.134Z,9.00
2022-08-04T20:01:44.163Z,8.63
2022-08-04T20:04:12.701Z,8.93
2022-08-04T20:06:39.983Z,9.13
2022-08-04T20:09:26.250Z,8.23
2022-08-04T20:11:54.868Z,8.73
2022-08-04T20:14:32.351Z,8.82
2022-08-04T20:17:01.524Z,10.15
2022-08-04T20:19:30.476Z,8.60
2022-08-04T20:21:57.874Z,9.63
2022-08-04T20:24:39.482Z,9.68
2022-08-04T20:27:25.334Z,10.45
2022-08-04T20:29:58.625Z,10.13
2022-08-04T20:32:28.052Z,9.73
2022-08-04T20:34:55.687Z,9.32
2022-08-04T20:37:23.999Z,8.38
2022-08-04T20:39:57.653Z,7.43
2022-08-04T20:42:33.992Z,8.80
2022-08-04T20:45:01.925Z,10.07
2022-08-04T20:47:31.103Z,10.50
2022-08-04T20:50:02.775Z,13.02
2022-08-04T20:52:30.494Z,12.38
2022-08-04T20:54:57.999Z,10.68
2022-08-04T20:57:48.641Z,9.88
2022-08-04T21:00:13.421Z,12.20
2022-08-04T21:02:41.435Z,11.13
2022-08-04T21:05:09.459Z,12.57
2022-08-04T21:07:43.874Z,12.23
2022-08-04T21:10:15.965Z,11.70
2022-08-04T21:12:44.229Z,11.50
2022-08-04T21:15:24.597Z,11.20
2022-08-04T21:17:59.042Z,11.27
2022-08-04T21:20:31.581Z,11.40
2022-08-04T21:23:01.910Z,11.85
2022-08-04T21:25:30.721Z,11.07
2022-08-04T21:27:58.575Z,11.35
2022-08-04T21:30:26.682Z,10.45
2022-08-04T21:32:54.986Z,10.30
2022-08-04T21:35:38.388Z,10.35
2022-08-04T21:38:16.401Z,10.70
2022-08-04T21:40:53.438Z,10.73
2022-08-04T21:43:23.610Z,12.20
2022-08-04T21:45:55.025Z,11.73
2022-08-04T21:48:22.947Z,10.60
2022-08-04T21:50:51.078Z,9.73
2022-08-04T21:53:19.808Z,10.55
2022-08-04T21:56:04.584Z,9.75
2022-08-04T21:58:34.720Z,10.15
2022-08-04T22:01:05.882Z,10.57
2022-08-04T22:03:52.750Z,11.05
2022-08-04T22:06:21.585Z,10.55
2022-08-04T22:08:56.069Z,10.80
2022-08-04T22:11:25.988Z,11.15
2022-08-04T22:14:10.600Z,11.00
2022-08-04T22:16:49.709Z,10.20
2022-08-04T22:19:16.851Z,10.25
2022-08-04T22:21:51.245Z,9.57
2022-08-04T22:24:18.588Z,9.88
2022-08-04T22:26:51.010Z,9.70
2022-08-04T22:29:18.163Z,11.13
2022-08-04T22:31:53.778Z,10.00
2022-08-04T22:34:24.716Z,9.30
2022-08-04T22:36:53.547Z,10.07
2022-08-04T22:39:23.346Z,9.40
2022-08-04T22:42:03.858Z,10.30
2022-08-04T22:44:33.102Z,10.27
2022-08-04T22:47:00.933Z,9.40
2022-08-04T22:49:31.661Z,9.57
2022-08-04T22:51:59.199Z,10.05
2022-08-04T22:54:29.589Z,9.45
2022-08-04T22:56:57.142Z,10.00
2022-08-04T22:59:24.671Z,9.02
2022-08-04T23:02:00.791Z,9.40
2022-08-04T23:04:29.309Z,10.43
2022-08-04T23:06:56.470Z,9.93
2022-08-04T23:09:27.112Z,9.80
2022-08-04T23:12:27.562Z,10.18
2022-08-04T23:14:55.915Z,10.27
2022-08-04T23:17:23.726Z,9.73
2022-08-04T23:19:57.303Z,10.20
2022-08-04T23:22:40.974Z,9.70
2022-08-04T23:25:15.818Z,9.88
2022-08-04T23:27:50.654Z,9.60
2022-08-04T23:30:19.597Z,9.70
2022-08-04T23:32:46.827Z,9.43
2022-08-04T23:35:15.204Z,10.35
2022-08-04T23:37:56.239Z,9.60
2022-08-04T23:40:32.870Z,10.20
2022-08-04T23:43:01.021Z,8.70
2022-08-04T23:46:04.022Z,8.90
2022-08-04T23:48:20.851Z,10.27
2022-08-04T23:50:48.390Z,10.52
2022-08-04T23:53:18.742Z,11.27
2022-08-04T23:55:49.912Z,10.13
2022-08-04T23:58:18.889Z,9.13
